sensor_id;sensor_type;location;lat;lon;timestamp;pressure;altitude;pressure_sealevel;temperature;humidity
48790;BME280;41718;51.980;5.734;2022-08-27T00:00:13;101617.13;;;14.65;100.00
48790;BME280;41718;51.980;5.734;2022-08-27T00:05:19;101619.66;;;14.58;100.00
48790;BME280;41718;51.980;5.734;2022-08-27T00:10:22;101612.59;;;14.50;100.00
48790;BME280;41718;51.980;5.734;2022-08-27T00:15:25;101602.94;;;14.43;100.00
48790;BME280;41718;51.980;5.734;2022-08-27T00:20:27;101611.88;;;14.62;100.00
48790;BME280;41718;51.980;5.734;2022-08-27T00:25:29;101606.69;;;14.65;100.00
48790;BME280;41718;51.980;5.734;2022-08-27T00:30:30;101605.72;;;14.55;100.00
48790;BME280;41718;51.980;5.734;2022-08-27T00:35:32;101597.69;;;14.37;100.00
48790;BME280;41718;51.980;5.734;2022-08-27T00:40:34;101605.47;;;14.35;100.00
48790;BME280;41718;51.980;5.734;2022-08-27T00:45:37;101602.78;;;14.27;100.00
48790;BME280;41718;51.980;5.734;2022-08-27T00:50:40;101602.81;;;14.32;100.00
48790;BME280;41718;51.980;5.734;2022-08-27T00:55:43;101600.03;;;14.15;100.00
48790;BME280;41718;51.980;5.734;2022-08-27T01:00:46;101613.13;;;14.23;100.00
48790;BME280;41718;51.980;5.734;2022-08-27T01:05:48;101611.31;;;14.17;100.00
48790;BME280;41718;51.980;5.734;2022-08-27T01:10:51;101601.63;;;14.05;100.00
48790;BME280;41718;51.980;5.734;2022-08-27T01:15:54;101607.75;;;14.08;100.00
48790;BME280;41718;51.980;5.734;2022-08-27T01:21:11;101607.69;;;14.04;100.00
48790;BME280;41718;51.980;5.734;2022-08-27T01:26:14;101616.38;;;14.06;100.00
48790;BME280;41718;51.980;5.734;2022-08-27T01:31:16;101608.47;;;13.96;100.00
48790;BME280;41718;51.980;5.734;2022-08-27T01:36:17;101614.56;;;13.98;100.00
48790;BME280;41718;51.980;5.734;2022-08-27T01:41:19;101613.53;;;13.88;100.00
48790;BME280;41718;51.980;5.734;2022-08-27T01:46:21;101605.78;;;13.90;100.00
48790;BME280;41718;51.980;5.734;2022-08-27T01:51:23;101595.47;;;13.99;100.00
48790;BME280;41718;51.980;5.734;2022-08-27T01:56:25;101600.53;;;13.88;100.00
48790;BME280;41718;51.980;5.734;2022-08-27T02:01:26;101605.00;;;13.98;100.00
48790;BME280;41718;51.980;5.734;2022-08-27T02:06:28;101597.13;;;13.91;100.00
48790;BME280;41718;51.980;5.734;2022-08-27T02:11:29;101603.13;;;13.87;100.00
48790;BME280;41718;51.980;5.734;2022-08-27T02:16:31;101591.75;;;13.80;100.00
48790;BME280;41718;51.980;5.734;2022-08-27T02:21:33;101591.78;;;13.83;100.00
48790;BME280;41718;51.980;5.734;2022-08-27T02:26:35;101590.75;;;13.69;100.00
48790;BME280;41718;51.980;5.734;2022-08-27T02:31:36;101589.75;;;13.61;100.00
48790;BME280;41718;51.980;5.734;2022-08-27T02:36:38;101590.56;;;13.57;100.00
48790;BME280;41718;51.980;5.734;2022-08-27T02:41:40;101594.28;;;13.74;100.00
48790;BME280;41718;51.980;5.734;2022-08-27T02:46:43;101595.97;;;13.72;100.00
48790;BME280;41718;51.980;5.734;2022-08-27T02:51:45;101596.16;;;13.84;100.00
48790;BME280;41718;51.980;5.734;2022-08-27T02:56:46;101594.31;;;13.77;100.00
48790;BME280;41718;51.980;5.734;2022-08-27T03:01:48;101592.63;;;13.81;100.00
48790;BME280;41718;51.980;5.734;2022-08-27T03:06:50;101584.00;;;13.83;100.00
48790;BME280;41718;51.980;5.734;2022-08-27T03:11:51;101577.03;;;13.81;100.00
48790;BME280;41718;51.980;5.734;2022-08-27T03:16:53;101576.25;;;13.86;100.00
48790;BME280;41718;51.980;5.734;2022-08-27T03:21:55;101576.16;;;13.78;100.00
48790;BME280;41718;51.980;5.734;2022-08-27T03:26:57;101573.72;;;13.92;100.00
48790;BME280;41718;51.980;5.734;2022-08-27T03:31:59;101571.03;;;13.85;100.00
48790;BME280;41718;51.980;5.734;2022-08-27T03:37:01;101584.06;;;13.89;100.00
48790;BME280;41718;51.980;5.734;2022-08-27T03:42:03;101585.66;;;13.78;100.00
48790;BME280;41718;51.980;5.734;2022-08-27T03:47:04;101593.56;;;13.84;100.00
48790;BME280;41718;51.980;5.734;2022-08-27T03:52:06;101590.91;;;13.79;100.00
48790;BME280;41718;51.980;5.734;2022-08-27T03:57:08;101583.88;;;13.74;100.00
48790;BME280;41718;51.980;5.734;2022-08-27T04:02:10;101596.75;;;13.65;100.00
48790;BME280;41718;51.980;5.734;2022-08-27T04:07:15;101595.03;;;13.67;100.00
48790;BME280;41718;51.980;5.734;2022-08-27T04:12:16;101592.31;;;13.58;100.00
48790;BME280;41718;51.980;5.734;2022-08-27T04:17:18;101594.75;;;13.45;100.00
48790;BME280;41718;51.980;5.734;2022-08-27T04:22:19;101595.78;;;13.57;100.00
48790;BME280;41718;51.980;5.734;2022-08-27T04:27:21;101599.09;;;13.48;100.00
48790;BME280;41718;51.980;5.734;2022-08-27T04:32:23;101605.13;;;13.45;100.00
48790;BME280;41718;51.980;5.734;2022-08-27T04:37:29;101597.34;;;13.45;100.00
48790;BME280;41718;51.980;5.734;2022-08-27T04:42:32;101599.44;;;13.16;100.00
48790;BME280;41718;51.980;5.734;2022-08-27T04:47:34;101606.97;;;13.01;100.00
48790;BME280;41718;51.980;5.734;2022-08-27T04:52:35;101610.47;;;13.03;100.00
48790;BME280;41718;51.980;5.734;2022-08-27T04:57:41;101607.75;;;12.97;100.00
48790;BME280;41718;51.980;5.734;2022-08-27T05:02:43;101616.22;;;12.87;100.00
48790;BME280;41718;51.980;5.734;2022-08-27T05:07:44;101612.69;;;12.82;100.00
48790;BME280;41718;51.980;5.734;2022-08-27T05:12:46;101627.47;;;12.84;100.00
48790;BME280;41718;51.980;5.734;2022-08-27T05:17:50;101618.91;;;12.90;100.00
48790;BME280;41718;51.980;5.734;2022-08-27T05:22:53;101631.13;;;12.95;100.00
48790;BME280;41718;51.980;5.734;2022-08-27T05:27:54;101626.13;;;13.08;100.00
48790;BME280;41718;51.980;5.734;2022-08-27T05:32:56;101624.03;;;13.37;100.00
48790;BME280;41718;51.980;5.734;2022-08-27T05:37:58;101618.22;;;13.51;100.00
48790;BME280;41718;51.980;5.734;2022-08-27T05:43:00;101622.91;;;13.77;100.00
48790;BME280;41718;51.980;5.734;2022-08-27T05:48:02;101623.31;;;14.06;100.00
48790;BME280;41718;51.980;5.734;2022-08-27T05:53:03;101622.91;;;14.42;100.00
48790;BME280;41718;51.980;5.734;2022-08-27T05:58:06;101617.19;;;14.71;100.00
48790;BME280;41718;51.980;5.734;2022-08-27T06:03:07;101611.44;;;15.07;100.00
48790;BME280;41718;51.980;5.734;2022-08-27T06:08:10;101596.97;;;15.47;100.00
48790;BME280;41718;51.980;5.734;2022-08-27T06:13:12;101586.72;;;15.66;100.00
48790;BME280;41718;51.980;5.734;2022-08-27T06:18:14;101590.47;;;16.24;100.00
48790;BME280;41718;51.980;5.734;2022-08-27T06:23:15;101582.69;;;16.47;100.00
48790;BME280;41718;51.980;5.734;2022-08-27T06:28:28;101574.88;;;16.64;100.00
48790;BME280;41718;51.980;5.734;2022-08-27T06:33:32;101572.31;;;16.90;100.00
48790;BME280;41718;51.980;5.734;2022-08-27T06:38:34;101580.16;;;16.94;100.00
48790;BME280;41718;51.980;5.734;2022-08-27T06:43:37;101576.69;;;17.09;100.00
48790;BME280;41718;51.980;5.734;2022-08-27T06:48:39;101574.91;;;17.46;100.00
48790;BME280;41718;51.980;5.734;2022-08-27T06:53:41;101570.56;;;17.42;100.00
48790;BME280;41718;51.980;5.734;2022-08-27T06:58:43;101569.63;;;17.79;100.00
48790;BME280;41718;51.980;5.734;2022-08-27T07:03:45;101569.56;;;17.95;100.00
48790;BME280;41718;51.980;5.734;2022-08-27T07:08:49;101564.31;;;17.92;100.00
48790;BME280;41718;51.980;5.734;2022-08-27T07:13:54;101556.28;;;18.34;100.00
48790;BME280;41718;51.980;5.734;2022-08-27T07:18:57;101564.06;;;18.46;100.00
48790;BME280;41718;51.980;5.734;2022-08-27T07:24:04;101560.44;;;18.70;100.00
48790;BME280;41718;51.980;5.734;2022-08-27T07:29:09;101568.41;;;18.51;100.00
48790;BME280;41718;51.980;5.734;2022-08-27T07:34:11;101566.31;;;19.04;100.00
48790;BME280;41718;51.980;5.734;2022-08-27T07:39:12;101568.16;;;18.88;100.00
48790;BME280;41718;51.980;5.734;2022-08-27T07:44:17;101568.09;;;19.00;100.00
48790;BME280;41718;51.980;5.734;2022-08-27T07:49:34;101582.06;;;19.01;100.00
48790;BME280;41718;51.980;5.734;2022-08-27T07:54:36;101581.44;;;18.62;100.00
48790;BME280;41718;51.980;5.734;2022-08-27T07:59:38;101577.31;;;19.43;100.00
48790;BME280;41718;51.980;5.734;2022-08-27T08:04:39;101575.78;;;19.20;100.00
48790;BME280;41718;51.980;5.734;2022-08-27T08:09:41;101585.06;;;19.55;100.00
48790;BME280;41718;51.980;5.734;2022-08-27T08:14:43;101580.66;;;19.63;100.00
48790;BME280;41718;51.980;5.734;2022-08-27T08:19:45;101573.34;;;19.91;100.00
48790;BME280;41718;51.980;5.734;2022-08-27T08:25:06;101575.09;;;19.89;100.00
48790;BME280;41718;51.980;5.734;2022-08-27T08:30:13;101565.88;;;19.51;100.00
48790;BME280;41718;51.980;5.734;2022-08-27T08:35:15;101571.25;;;20.16;100.00
48790;BME280;41718;51.980;5.734;2022-08-27T08:40:30;101573.53;;;20.41;100.00
48790;BME280;41718;51.980;5.734;2022-08-27T08:45:32;101574.06;;;20.67;100.00
48790;BME280;41718;51.980;5.734;2022-08-27T08:50:43;101576.47;;;20.82;100.00
48790;BME280;41718;51.980;5.734;2022-08-27T08:55:54;101574.00;;;20.72;100.00
48790;BME280;41718;51.980;5.734;2022-08-27T09:00:58;101577.69;;;20.58;100.00
48790;BME280;41718;51.980;5.734;2022-08-27T09:06:08;101579.94;;;20.84;100.00
48790;BME280;41718;51.980;5.734;2022-08-27T09:16:15;101569.13;;;21.01;100.00
48790;BME280;41718;51.980;5.734;2022-08-27T09:26:29;101583.88;;;21.11;100.00
48790;BME280;41718;51.980;5.734;2022-08-27T09:31:34;101584.28;;;20.85;100.00
48790;BME280;41718;51.980;5.734;2022-08-27T09:36:45;101584.94;;;21.52;100.00
48790;BME280;41718;51.980;5.734;2022-08-27T09:41:48;101577.38;;;21.34;100.00
48790;BME280;41718;51.980;5.734;2022-08-27T09:46:57;101584.41;;;20.79;100.00
48790;BME280;41718;51.980;5.734;2022-08-27T09:51:59;101582.06;;;20.61;100.00
48790;BME280;41718;51.980;5.734;2022-08-27T09:57:02;101587.16;;;20.70;100.00
48790;BME280;41718;51.980;5.734;2022-08-27T10:02:12;101581.97;;;20.67;100.00
48790;BME280;41718;51.980;5.734;2022-08-27T10:12:45;101567.81;;;22.19;100.00
48790;BME280;41718;51.980;5.734;2022-08-27T10:28:03;101568.97;;;22.05;98.82
48790;BME280;41718;51.980;5.734;2022-08-27T10:33:16;101568.44;;;22.29;98.32
48790;BME280;41718;51.980;5.734;2022-08-27T10:38:40;101569.22;;;22.36;100.00
48790;BME280;41718;51.980;5.734;2022-08-27T10:49:12;101563.47;;;22.56;100.00
48790;BME280;41718;51.980;5.734;2022-08-27T10:54:27;101569.34;;;22.30;100.00
48790;BME280;41718;51.980;5.734;2022-08-27T11:04:50;101571.25;;;21.78;100.00
48790;BME280;41718;51.980;5.734;2022-08-27T11:14:59;101571.81;;;21.95;100.00
48790;BME280;41718;51.980;5.734;2022-08-27T11:41:25;101554.81;;;22.49;100.00
48790;BME280;41718;51.980;5.734;2022-08-27T11:46:46;101548.47;;;22.58;100.00
48790;BME280;41718;51.980;5.734;2022-08-27T11:51:55;101551.56;;;22.38;100.00
48790;BME280;41718;51.980;5.734;2022-08-27T11:56:57;101552.34;;;22.43;100.00
48790;BME280;41718;51.980;5.734;2022-08-27T12:02:10;101564.25;;;21.77;100.00
48790;BME280;41718;51.980;5.734;2022-08-27T12:12:15;101561.72;;;22.55;100.00
48790;BME280;41718;51.980;5.734;2022-08-27T12:17:29;101554.22;;;22.75;100.00
48790;BME280;41718;51.980;5.734;2022-08-27T12:22:49;101558.41;;;22.46;100.00
48790;BME280;41718;51.980;5.734;2022-08-27T12:28:21;101549.69;;;22.43;99.58
48790;BME280;41718;51.980;5.734;2022-08-27T12:33:38;101548.09;;;22.73;98.89
48790;BME280;41718;51.980;5.734;2022-08-27T12:44:00;101540.44;;;22.25;99.06
48790;BME280;41718;51.980;5.734;2022-08-27T12:49:05;101544.53;;;22.38;97.49
48790;BME280;41718;51.980;5.734;2022-08-27T13:04:39;101534.59;;;22.49;99.39
48790;BME280;41718;51.980;5.734;2022-08-27T13:09:42;101531.59;;;22.65;100.00
48790;BME280;41718;51.980;5.734;2022-08-27T13:14:45;101529.94;;;22.22;100.00
48790;BME280;41718;51.980;5.734;2022-08-27T13:20:00;101537.13;;;22.15;100.00
48790;BME280;41718;51.980;5.734;2022-08-27T13:25:02;101539.00;;;22.09;100.00
48790;BME280;41718;51.980;5.734;2022-08-27T13:30:06;101538.28;;;22.42;100.00
48790;BME280;41718;51.980;5.734;2022-08-27T13:35:08;101528.72;;;21.96;100.00
48790;BME280;41718;51.980;5.734;2022-08-27T13:40:12;101523.72;;;21.84;100.00
48790;BME280;41718;51.980;5.734;2022-08-27T13:45:25;101531.47;;;21.92;100.00
48790;BME280;41718;51.980;5.734;2022-08-27T13:50:30;101528.41;;;22.12;100.00
48790;BME280;41718;51.980;5.734;2022-08-27T13:55:32;101523.66;;;22.28;100.00
48790;BME280;41718;51.980;5.734;2022-08-27T14:00:34;101527.22;;;22.64;100.00
48790;BME280;41718;51.980;5.734;2022-08-27T14:05:45;101524.91;;;22.11;100.00
48790;BME280;41718;51.980;5.734;2022-08-27T14:10:48;101528.03;;;22.30;100.00
48790;BME280;41718;51.980;5.734;2022-08-27T14:15:51;101522.31;;;22.10;100.00
48790;BME280;41718;51.980;5.734;2022-08-27T14:20:54;101525.19;;;21.98;100.00
48790;BME280;41718;51.980;5.734;2022-08-27T14:25:57;101528.13;;;21.82;100.00
48790;BME280;41718;51.980;5.734;2022-08-27T14:30:59;101523.91;;;22.18;97.29
48790;BME280;41718;51.980;5.734;2022-08-27T14:36:00;101534.59;;;22.09;98.52
48790;BME280;41718;51.980;5.734;2022-08-27T14:41:02;101519.50;;;22.19;100.00
48790;BME280;41718;51.980;5.734;2022-08-27T14:46:09;101532.69;;;22.17;100.00
48790;BME280;41718;51.980;5.734;2022-08-27T14:51:13;101524.53;;;22.30;100.00
48790;BME280;41718;51.980;5.734;2022-08-27T14:56:17;101537.22;;;22.09;100.00
48790;BME280;41718;51.980;5.734;2022-08-27T15:01:23;101533.72;;;22.09;100.00
48790;BME280;41718;51.980;5.734;2022-08-27T15:06:24;101536.03;;;22.26;99.29
48790;BME280;41718;51.980;5.734;2022-08-27T15:11:28;101526.16;;;21.93;100.00
48790;BME280;41718;51.980;5.734;2022-08-27T15:16:39;101523.50;;;22.35;97.03
48790;BME280;41718;51.980;5.734;2022-08-27T15:21:43;101538.56;;;22.30;99.79
48790;BME280;41718;51.980;5.734;2022-08-27T15:26:45;101537.34;;;22.05;100.00
48790;BME280;41718;51.980;5.734;2022-08-27T15:31:46;101537.56;;;22.36;100.00
48790;BME280;41718;51.980;5.734;2022-08-27T15:36:48;101540.22;;;22.34;99.76
48790;BME280;41718;51.980;5.734;2022-08-27T15:41:50;101547.19;;;21.96;100.00
48790;BME280;41718;51.980;5.734;2022-08-27T15:47:07;101547.22;;;21.93;100.00
48790;BME280;41718;51.980;5.734;2022-08-27T15:52:09;101545.47;;;21.94;100.00
48790;BME280;41718;51.980;5.734;2022-08-27T15:57:17;101546.97;;;22.07;100.00
48790;BME280;41718;51.980;5.734;2022-08-27T16:02:20;101540.53;;;21.77;100.00
48790;BME280;41718;51.980;5.734;2022-08-27T16:07:22;101547.94;;;22.02;100.00
48790;BME280;41718;51.980;5.734;2022-08-27T16:12:27;101542.06;;;21.89;99.94
48790;BME280;41718;51.980;5.734;2022-08-27T16:17:29;101540.41;;;21.83;100.00
48790;BME280;41718;51.980;5.734;2022-08-27T16:22:32;101530.94;;;21.75;100.00
48790;BME280;41718;51.980;5.734;2022-08-27T16:27:35;101543.72;;;21.50;100.00
48790;BME280;41718;51.980;5.734;2022-08-27T16:32:38;101542.88;;;21.48;100.00
48790;BME280;41718;51.980;5.734;2022-08-27T16:37:41;101544.81;;;21.39;100.00
48790;BME280;41718;51.980;5.734;2022-08-27T16:42:46;101544.88;;;21.35;100.00
48790;BME280;41718;51.980;5.734;2022-08-27T16:47:50;101539.16;;;21.11;100.00
48790;BME280;41718;51.980;5.734;2022-08-27T16:53:11;101537.25;;;21.18;100.00
48790;BME280;41718;51.980;5.734;2022-08-27T16:58:29;101541.47;;;21.27;100.00
48790;BME280;41718;51.980;5.734;2022-08-27T17:03:34;101532.88;;;21.18;100.00
48790;BME280;41718;51.980;5.734;2022-08-27T17:08:57;101532.00;;;21.18;100.00
48790;BME280;41718;51.980;5.734;2022-08-27T17:14:00;101538.47;;;20.99;100.00
48790;BME280;41718;51.980;5.734;2022-08-27T17:19:05;101542.91;;;20.97;100.00
48790;BME280;41718;51.980;5.734;2022-08-27T17:24:07;101544.03;;;20.80;100.00
48790;BME280;41718;51.980;5.734;2022-08-27T17:29:12;101543.19;;;20.80;100.00
48790;BME280;41718;51.980;5.734;2022-08-27T17:34:15;101545.06;;;20.72;100.00
48790;BME280;41718;51.980;5.734;2022-08-27T17:39:18;101542.56;;;20.62;100.00
48790;BME280;41718;51.980;5.734;2022-08-27T17:44:22;101541.84;;;20.54;100.00
48790;BME280;41718;51.980;5.734;2022-08-27T17:49:24;101551.31;;;20.66;100.00
48790;BME280;41718;51.980;5.734;2022-08-27T17:54:37;101555.44;;;20.21;100.00
48790;BME280;41718;51.980;5.734;2022-08-27T17:59:43;101566.09;;;20.08;100.00
48790;BME280;41718;51.980;5.734;2022-08-27T18:04:46;101570.63;;;19.96;100.00
48790;BME280;41718;51.980;5.734;2022-08-27T18:09:48;101569.81;;;19.92;100.00
48790;BME280;41718;51.980;5.734;2022-08-27T18:15:04;101575.25;;;19.75;100.00
48790;BME280;41718;51.980;5.734;2022-08-27T18:20:09;101577.97;;;19.66;100.00
48790;BME280;41718;51.980;5.734;2022-08-27T18:25:13;101585.94;;;19.55;100.00
48790;BME280;41718;51.980;5.734;2022-08-27T18:30:15;101599.13;;;19.49;100.00
48790;BME280;41718;51.980;5.734;2022-08-27T18:35:21;101599.28;;;19.32;100.00
48790;BME280;41718;51.980;5.734;2022-08-27T18:40:24;101606.31;;;19.30;100.00
48790;BME280;41718;51.980;5.734;2022-08-27T18:45:27;101612.50;;;19.23;100.00
48790;BME280;41718;51.980;5.734;2022-08-27T18:50:29;101627.50;;;19.08;100.00
48790;BME280;41718;51.980;5.734;2022-08-27T18:55:30;101629.34;;;18.95;100.00
48790;BME280;41718;51.980;5.734;2022-08-27T19:00:32;101634.66;;;18.84;100.00
48790;BME280;41718;51.980;5.734;2022-08-27T19:05:33;101644.28;;;18.84;100.00
48790;BME280;41718;51.980;5.734;2022-08-27T19:10:35;101637.34;;;18.69;100.00
48790;BME280;41718;51.980;5.734;2022-08-27T19:15:39;101647.91;;;18.50;100.00
48790;BME280;41718;51.980;5.734;2022-08-27T19:20:42;101644.44;;;18.42;100.00
48790;BME280;41718;51.980;5.734;2022-08-27T19:25:44;101654.13;;;18.20;100.00
48790;BME280;41718;51.980;5.734;2022-08-27T19:30:50;101663.81;;;18.00;100.00
48790;BME280;41718;51.980;5.734;2022-08-27T19:35:52;101673.44;;;17.89;100.00
48790;BME280;41718;51.980;5.734;2022-08-27T19:40:54;101666.47;;;17.79;100.00
48790;BME280;41718;51.980;5.734;2022-08-27T19:45:57;101678.69;;;17.61;100.00
48790;BME280;41718;51.980;5.734;2022-08-27T19:50:59;101685.66;;;17.33;100.00
48790;BME280;41718;51.980;5.734;2022-08-27T19:56:00;101695.25;;;17.30;100.00
48790;BME280;41718;51.980;5.734;2022-08-27T20:01:02;101704.84;;;17.20;100.00
48790;BME280;41718;51.980;5.734;2022-08-27T20:06:04;101696.09;;;17.04;100.00
48790;BME280;41718;51.980;5.734;2022-08-27T20:11:05;101705.66;;;16.98;100.00
48790;BME280;41718;51.980;5.734;2022-08-27T20:16:07;101708.22;;;16.76;100.00
48790;BME280;41718;51.980;5.734;2022-08-27T20:21:13;101707.34;;;16.74;100.00
48790;BME280;41718;51.980;5.734;2022-08-27T20:26:15;101708.13;;;16.58;100.00
48790;BME280;41718;51.980;5.734;2022-08-27T20:31:17;101708.09;;;16.53;100.00
48790;BME280;41718;51.980;5.734;2022-08-27T20:36:19;101714.13;;;16.38;100.00
48790;BME280;41718;51.980;5.734;2022-08-27T20:41:21;101724.50;;;16.25;100.00
48790;BME280;41718;51.980;5.734;2022-08-27T20:46:23;101721.84;;;16.20;100.00
48790;BME280;41718;51.980;5.734;2022-08-27T20:51:26;101728.81;;;16.18;100.00
48790;BME280;41718;51.980;5.734;2022-08-27T20:56:28;101739.22;;;16.13;100.00
48790;BME280;41718;51.980;5.734;2022-08-27T21:01:30;101748.72;;;16.01;100.00
48790;BME280;41718;51.980;5.734;2022-08-27T21:06:32;101753.81;;;15.87;100.00
48790;BME280;41718;51.980;5.734;2022-08-27T21:11:34;101751.13;;;15.75;100.00
48790;BME280;41718;51.980;5.734;2022-08-27T21:16:35;101748.56;;;15.82;100.00
48790;BME280;41718;51.980;5.734;2022-08-27T21:21:37;101755.47;;;15.73;100.00
48790;BME280;41718;51.980;5.734;2022-08-27T21:26:39;101753.56;;;15.58;100.00
48790;BME280;41718;51.980;5.734;2022-08-27T21:31:41;101763.06;;;15.53;100.00
48790;BME280;41718;51.980;5.734;2022-08-27T21:36:42;101753.44;;;15.46;100.00
48790;BME280;41718;51.980;5.734;2022-08-27T21:41:44;101754.19;;;15.34;100.00
48790;BME280;41718;51.980;5.734;2022-08-27T21:46:48;101763.66;;;15.26;100.00
48790;BME280;41718;51.980;5.734;2022-08-27T21:51:51;101765.31;;;15.16;100.00
48790;BME280;41718;51.980;5.734;2022-08-27T21:56:52;101766.13;;;15.09;100.00
48790;BME280;41718;51.980;5.734;2022-08-27T22:01:54;101773.13;;;15.15;100.00
48790;BME280;41718;51.980;5.734;2022-08-27T22:07:01;101785.03;;;14.93;100.00
48790;BME280;41718;51.980;5.734;2022-08-27T22:12:03;101791.88;;;14.84;100.00
48790;BME280;41718;51.980;5.734;2022-08-27T22:17:05;101791.00;;;14.85;100.00
48790;BME280;41718;51.980;5.734;2022-08-27T22:22:06;101795.13;;;14.68;100.00
48790;BME280;41718;51.980;5.734;2022-08-27T22:27:08;101800.06;;;14.48;100.00
48790;BME280;41718;51.980;5.734;2022-08-27T22:32:09;101796.41;;;14.37;100.00
48790;BME280;41718;51.980;5.734;2022-08-27T22:37:16;101795.53;;;14.37;100.00
48790;BME280;41718;51.980;5.734;2022-08-27T22:42:18;101796.22;;;14.25;100.00
48790;BME280;41718;51.980;5.734;2022-08-27T22:47:21;101803.03;;;14.17;100.00
48790;BME280;41718;51.980;5.734;2022-08-27T22:52:23;101803.59;;;13.97;100.00
48790;BME280;41718;51.980;5.734;2022-08-27T22:57:28;101812.22;;;13.95;100.00
48790;BME280;41718;51.980;5.734;2022-08-27T23:02:30;101821.53;;;13.81;100.00
48790;BME280;41718;51.980;5.734;2022-08-27T23:07:31;101819.63;;;13.72;100.00
48790;BME280;41718;51.980;5.734;2022-08-27T23:12:33;101822.88;;;13.59;100.00
48790;BME280;41718;51.980;5.734;2022-08-27T23:17:39;101834.13;;;13.58;100.00
48790;BME280;41718;51.980;5.734;2022-08-27T23:22:42;101829.66;;;13.50;100.00
48790;BME280;41718;51.980;5.734;2022-08-27T23:27:44;101831.97;;;13.35;100.00
48790;BME280;41718;51.980;5.734;2022-08-27T23:32:46;101838.31;;;13.09;100.00
48790;BME280;41718;51.980;5.734;2022-08-27T23:37:54;101838.09;;;12.98;100.00
48790;BME280;41718;51.980;5.734;2022-08-27T23:42:56;101842.50;;;13.02;100.00
48790;BME280;41718;51.980;5.734;2022-08-27T23:47:58;101836.97;;;12.87;100.00
48790;BME280;41718;51.980;5.734;2022-08-27T23:53:02;101841.16;;;12.79;100.00
48790;BME280;41718;51.980;5.734;2022-08-27T23:58:04;101845.34;;;12.73;100.00
